Time;durP1;ratioP1;P1;durP2;ratioP2;P2;SDS_P1;SDS_P2;PMS_P1;PMS_P2;Temp;Humidity;BMP_temperature;BMP_pressure;BME280_temperature;BME280_humidity;BME280_pressure;Samples;Min_cycle;Max_cycle;Signal;HPM_P1;HPM_P2
2022/09/04 00:02:15;;;;;;;4.45;1.80;;;17.40;96.20;;;;;;5077826;28;20126;-53
2022/09/04 00:04:56;;;;;;;5.60;1.90;;;17.40;95.90;;;;;;5077783;28;20561;-52
2022/09/04 00:07:42;;;;;;;7.22;1.80;;;17.30;95.90;;;;;;5077408;28;20048;-52
2022/09/04 00:10:28;;;;;;;5.35;1.67;;;17.40;96.30;;;;;;5077887;28;20124;-52
2022/09/04 00:13:15;;;;;;;8.27;2.03;;;17.30;96.50;;;;;;5077776;28;20076;-53
2022/09/04 00:15:46;;;;;;;4.95;2.03;;;17.30;95.90;;;;;;5077160;28;20046;-52
2022/09/04 00:18:45;;;;;;;;;;;17.30;96.00;;;;;;5095933;28;20070;-52
2022/09/04 00:21:26;;;;;;;5.15;2.08;;;17.20;95.70;;;;;;5063001;28;19955;-50
2022/09/04 00:24:03;;;;;;;4.50;1.90;;;17.30;95.70;;;;;;5097539;28;20044;-53
2022/09/04 00:26:29;;;;;;;5.70;1.67;;;17.30;96.10;;;;;;5098131;28;20086;-52
2022/09/04 00:29:02;;;;;;;4.85;1.80;;;17.20;96.00;;;;;;5097235;28;20119;-53
2022/09/04 00:31:50;;;;;;;7.88;2.45;;;17.30;96.10;;;;;;5098098;28;20445;-52
2022/09/04 00:34:51;;;;;;;6.15;1.70;;;17.20;95.80;;;;;;5080967;28;20056;-53
2022/09/04 00:37:21;;;;;;;7.68;2.20;;;17.20;95.40;;;;;;5097110;28;20071;-52
2022/09/04 00:40:02;;;;;;;8.55;1.85;;;17.20;95.50;;;;;;5096531;28;20036;-53
2022/09/04 00:42:48;;;;;;;4.22;1.75;;;17.20;95.40;;;;;;5097652;28;20549;-52
2022/09/04 00:45:16;;;;;;;4.65;1.90;;;17.20;95.30;;;;;;5097661;28;20103;-51
2022/09/04 00:47:56;;;;;;;4.68;1.83;;;17.20;95.70;;;;;;5097898;28;20036;-52
2022/09/04 00:50:36;;;;;;;6.43;2.03;;;17.10;95.40;;;;;;5096044;28;20051;-52
2022/09/04 00:53:33;;;;;;;5.30;1.88;;;17.10;95.20;;;;;;5098180;28;20542;-51
2022/09/04 00:56:36;;;;;;;5.50;2.50;;;17.10;95.90;;;;;;5079596;28;20089;-52
2022/09/04 00:59:28;;;;;;;7.18;2.20;;;17.10;95.20;;;;;;5097115;28;20059;-53
2022/09/04 01:01:59;;;;;;;6.90;2.00;;;17.10;95.40;;;;;;5096676;28;20032;-53
2022/09/04 01:04:37;;;;;;;7.57;1.98;;;17.10;95.30;;;;;;5097543;28;20040;-52
2022/09/04 01:07:30;;;;;;;6.07;2.20;;;17.10;95.50;;;;;;5097332;28;20185;-53
2022/09/04 01:10:33;;;;;;;7.93;2.00;;;17.10;95.40;;;;;;5097183;28;20052;-53
2022/09/04 01:13:04;;;;;;;4.70;1.75;;;17.00;95.50;;;;;;5097520;28;20055;-52
2022/09/04 01:15:58;;;;;;;5.25;2.10;;;17.00;95.40;;;;;;5100631;28;20127;-52
2022/09/04 01:18:48;;;;;;;7.28;2.47;;;17.00;95.40;;;;;;5078345;28;20088;-52
2022/09/04 01:21:39;;;;;;;6.30;1.98;;;17.00;95.40;;;;;;5080303;28;20040;-53
2022/09/04 01:24:30;;;;;;;7.95;1.98;;;17.00;95.60;;;;;;5080552;28;20065;-51
2022/09/04 01:27:08;;;;;;;6.78;2.00;;;17.00;95.70;;;;;;5080988;28;20076;-51
2022/09/04 01:29:57;;;;;;;8.80;2.90;;;16.90;95.50;;;;;;5080355;28;20084;-52
2022/09/04 01:33:09;;;;;;;7.57;2.30;;;16.90;95.50;;;;;;5080595;28;20108;-52
2022/09/04 01:36:02;;;;;;;5.03;2.00;;;16.90;95.60;;;;;;5080726;28;20074;-53
2022/09/04 01:38:49;;;;;;;;;;;16.90;96.00;;;;;;5075423;28;20050;-52
2022/09/04 01:41:33;;;;;;;6.75;2.70;;;16.80;95.70;;;;;;5100319;28;19920;-50
2022/09/04 01:44:03;;;;;;;6.47;1.98;;;16.80;95.90;;;;;;5100879;28;20107;-52
2022/09/04 01:46:41;;;;;;;6.10;2.08;;;16.80;95.70;;;;;;5098647;28;20084;-51
2022/09/04 01:49:26;;;;;;;6.88;2.67;;;16.80;96.00;;;;;;5101024;28;20048;-51
2022/09/04 01:52:17;;;;;;;7.13;2.20;;;16.70;96.00;;;;;;5100751;28;20058;-52
2022/09/04 01:54:48;;;;;;;5.50;2.00;;;16.70;96.00;;;;;;5100110;28;20072;-52
2022/09/04 01:57:48;;;;;;;6.88;2.53;;;16.70;96.00;;;;;;5100741;28;20094;-53
2022/09/04 02:00:18;;;;;;;6.85;2.20;;;16.70;96.30;;;;;;5100568;28;20040;-52
2022/09/04 02:03:08;;;;;;;7.18;2.40;;;16.70;96.20;;;;;;5100280;28;20443;-52
2022/09/04 02:05:47;;;;;;;7.40;2.40;;;16.70;96.30;;;;;;5100486;28;20055;-53
2022/09/04 02:08:39;;;;;;;7.70;2.42;;;16.70;96.20;;;;;;5099579;28;20055;-52
2022/09/04 02:11:21;;;;;;;6.68;2.47;;;16.60;96.30;;;;;;5100212;28;20046;-53
2022/09/04 02:14:19;;;;;;;6.60;2.40;;;16.60;96.60;;;;;;5100363;28;20377;-52
2022/09/04 02:17:00;;;;;;;8.48;2.92;;;16.70;97.10;;;;;;5084232;28;20067;-52
2022/09/04 02:19:49;;;;;;;6.03;2.42;;;16.60;97.10;;;;;;5079876;28;20100;-52
2022/09/04 02:22:35;;;;;;;6.43;2.25;;;16.60;97.00;;;;;;5080057;28;20060;-53
2022/09/04 02:25:29;;;;;;;5.13;2.13;;;16.50;97.10;;;;;;5078485;28;20108;-51
2022/09/04 02:28:16;;;;;;;8.43;2.50;;;16.40;96.80;;;;;;5079832;28;20056;-51
2022/09/04 02:31:07;;;;;;;6.63;2.28;;;16.40;97.30;;;;;;5078550;28;20053;-53
2022/09/04 02:33:50;;;;;;;5.13;2.13;;;16.40;97.80;;;;;;5077358;28;20051;-53
2022/09/04 02:36:40;;;;;;;8.85;2.60;;;16.30;97.90;;;;;;5079788;28;20052;-52
2022/09/04 02:39:25;;;;;;;7.40;2.00;;;16.30;97.90;;;;;;5095503;28;20070;-53
2022/09/04 02:42:04;;;;;;;11.07;2.38;;;16.30;98.00;;;;;;5099134;28;20055;-53
2022/09/04 02:44:49;;;;;;;6.45;2.92;;;16.20;98.50;;;;;;5099924;28;20059;-53
2022/09/04 02:47:46;;;;;;;6.35;2.50;;;16.10;98.30;;;;;;5099571;28;20129;-50
2022/09/04 02:50:49;;;;;;;5.68;2.03;;;16.10;98.60;;;;;;5091058;28;20084;-52
2022/09/04 02:53:53;;;;;;;9.60;2.38;;;16.10;98.80;;;;;;5099535;28;20055;-52
2022/09/04 02:56:42;;;;;;;5.47;2.00;;;16.00;99.40;;;;;;5099290;28;20052;-51
2022/09/04 02:59:22;;;;;;;5.65;2.47;;;15.90;99.90;;;;;;5098474;28;20058;-53
2022/09/04 03:01:58;;;;;;;6.47;1.95;;;15.80;99.90;;;;;;5099567;28;20085;-53
2022/09/04 03:04:30;;;;;;;8.38;2.58;;;15.80;99.90;;;;;;5098956;28;20055;-50
2022/09/04 03:07:02;;;;;;;6.32;2.58;;;15.80;99.90;;;;;;5097703;28;20495;-52
2022/09/04 03:09:45;;;;;;;5.63;2.42;;;15.80;99.80;;;;;;5098962;28;20052;-52
2022/09/04 03:12:46;;;;;;;5.30;2.63;;;15.80;99.90;;;;;;5098140;28;20165;-52
2022/09/04 03:15:45;;;;;;;7.18;2.47;;;15.80;99.90;;;;;;5098706;28;20040;-52
2022/09/04 03:18:33;;;;;;;5.57;2.13;;;15.70;99.90;;;;;;5080914;28;20099;-52
2022/09/04 03:21:06;;;;;;;7.50;2.95;;;15.70;99.90;;;;;;5077670;28;20068;-52
2022/09/04 03:23:35;;;;;;;5.82;2.40;;;15.70;99.80;;;;;;5078543;28;20045;-52
2022/09/04 03:26:12;;;;;;;5.80;2.20;;;15.70;99.90;;;;;;5078558;28;20119;-51
2022/09/04 03:29:15;;;;;;;6.90;2.38;;;15.60;99.90;;;;;;5077823;28;20048;-51
2022/09/04 03:32:08;;;;;;;7.07;2.72;;;15.70;99.90;;;;;;5078634;28;20037;-52
2022/09/04 03:34:50;;;;;;;7.68;2.67;;;15.60;99.90;;;;;;5078411;28;20056;-53
2022/09/04 03:37:29;;;;;;;7.75;2.75;;;15.60;99.90;;;;;;5078356;28;20045;-52
2022/09/04 03:40:16;;;;;;;7.05;2.60;;;15.60;99.90;;;;;;5098232;28;20043;-51
2022/09/04 03:42:55;;;;;;;5.78;2.38;;;15.60;99.90;;;;;;5098318;28;20695;-53
2022/09/04 03:45:53;;;;;;;7.15;2.10;;;15.60;99.90;;;;;;5098009;28;20338;-52
2022/09/04 03:48:43;;;;;;;5.32;2.00;;;15.60;99.90;;;;;;5098433;28;20054;-51
2022/09/04 03:51:24;;;;;;;6.60;2.70;;;15.60;99.90;;;;;;5097760;28;20062;-51
2022/09/04 03:54:11;;;;;;;6.22;2.40;;;15.50;99.90;;;;;;5097885;28;20052;-52
2022/09/04 03:56:40;;;;;;;8.18;2.75;;;15.50;99.90;;;;;;5096530;28;20055;-53
2022/09/04 03:59:24;;;;;;;5.65;2.45;;;15.50;99.90;;;;;;5097560;28;20055;-53
2022/09/04 04:02:05;;;;;;;7.15;2.33;;;15.40;99.90;;;;;;5098436;28;20035;-52
2022/09/04 04:04:56;;;;;;;10.77;3.08;;;15.40;99.90;;;;;;5098123;28;20048;-52
2022/09/04 04:07:36;;;;;;;5.90;2.75;;;15.40;99.90;;;;;;5097487;28;20078;-52
2022/09/04 04:10:32;;;;;;;6.65;2.38;;;15.30;99.90;;;;;;5098073;28;20093;-52
2022/09/04 04:13:12;;;;;;;5.45;2.60;;;15.30;99.90;;;;;;5095408;28;20064;-52
2022/09/04 04:15:56;;;;;;;7.03;2.50;;;15.30;99.90;;;;;;5097552;28;20099;-51
2022/09/04 04:18:25;;;;;;;6.20;2.70;;;15.20;99.90;;;;;;5078727;28;20074;-53
2022/09/04 04:21:11;;;;;;;6.85;2.50;;;15.20;99.90;;;;;;5075956;28;20045;-52
2022/09/04 04:24:13;;;;;;;6.32;2.60;;;15.20;99.90;;;;;;5077491;28;20059;-52
2022/09/04 04:26:51;;;;;;;6.53;2.13;;;15.20;99.90;;;;;;5077635;28;20037;-50
2022/09/04 04:29:36;;;;;;;5.85;2.78;;;15.20;99.90;;;;;;5076934;28;20052;-51
2022/09/04 04:32:24;;;;;;;5.75;2.60;;;15.20;99.90;;;;;;5077689;28;20071;-53
2022/09/04 04:35:10;;;;;;;5.55;2.38;;;15.20;99.90;;;;;;5077534;28;20093;-51
2022/09/04 04:37:58;;;;;;;6.70;2.60;;;15.20;99.90;;;;;;5080472;28;20032;-52
2022/09/04 04:40:43;;;;;;;6.03;2.55;;;15.30;99.90;;;;;;5097692;28;20083;-52
2022/09/04 04:43:27;;;;;;;5.63;2.70;;;15.30;99.90;;;;;;5097759;28;20048;-53
2022/09/04 04:46:07;;;;;;;7.00;2.47;;;15.30;99.90;;;;;;5097167;28;20044;-52
2022/09/04 04:49:04;;;;;;;9.32;2.78;;;15.30;99.90;;;;;;5098134;28;20093;-52
2022/09/04 04:52:08;;;;;;;7.72;2.72;;;15.30;99.90;;;;;;5101652;28;20507;-51
2022/09/04 04:54:51;;;;;;;7.25;3.17;;;15.30;99.90;;;;;;5101146;28;20044;-51
2022/09/04 04:57:29;;;;;;;8.05;3.17;;;15.30;99.90;;;;;;5101962;28;20593;-51
2022/09/04 05:00:05;;;;;;;6.47;2.72;;;15.30;99.90;;;;;;5101528;28;20077;-53
2022/09/04 05:02:35;;;;;;;6.70;2.90;;;15.30;99.90;;;;;;5100132;28;20060;-52
2022/09/04 05:05:12;;;;;;;7.28;2.90;;;15.40;99.90;;;;;;5101657;28;20055;-53
2022/09/04 05:07:53;;;;;;;6.03;2.83;;;15.30;99.90;;;;;;5100968;28;20063;-53
2022/09/04 05:10:28;;;;;;;9.40;2.75;;;15.30;99.90;;;;;;5101486;28;20097;-53
2022/09/04 05:13:20;;;;;;;9.55;3.10;;;15.30;99.90;;;;;;5101505;28;20048;-51
2022/09/04 05:16:14;;;;;;;6.87;2.63;;;15.40;99.90;;;;;;5090335;28;20048;-52
2022/09/04 05:18:58;;;;;;;7.72;3.13;;;15.20;99.90;;;;;;5081322;28;20045;-50
2022/09/04 05:21:43;;;;;;;6.22;2.83;;;15.30;99.90;;;;;;5080628;28;20044;-50
2022/09/04 05:24:33;;;;;;;8.95;2.78;;;15.30;99.90;;;;;;5080467;28;20049;-51
2022/09/04 05:27:06;;;;;;;6.45;2.63;;;15.30;99.90;;;;;;5070286;28;20048;-50
2022/09/04 05:29:59;;;;;;;5.90;2.83;;;15.40;99.90;;;;;;5080330;28;20086;-50
2022/09/04 05:32:50;;;;;;;6.88;3.03;;;15.40;99.90;;;;;;5069829;28;20121;-52
2022/09/04 05:35:23;;;;;;;10.35;3.20;;;15.50;99.90;;;;;;5080433;28;20074;-52
2022/09/04 05:38:03;;;;;;;6.80;2.53;;;15.50;99.90;;;;;;5080462;28;20055;-52
2022/09/04 05:40:43;;;;;;;6.78;2.78;;;15.60;99.90;;;;;;5097467;28;20055;-51
2022/09/04 05:43:28;;;;;;;5.57;2.50;;;15.60;99.90;;;;;;5097403;28;20040;-51
2022/09/04 05:45:53;;;;;;;5.75;2.70;;;15.60;99.90;;;;;;5096608;28;20040;-51
2022/09/04 05:48:19;;;;;;;7.28;2.90;;;15.60;99.90;;;;;;5097106;28;20070;-53
2022/09/04 05:51:15;;;;;;;7.75;3.50;;;15.70;99.90;;;;;;5095185;28;20048;-51
2022/09/04 05:53:46;;;;;;;7.00;2.60;;;15.80;99.90;;;;;;5097184;28;20048;-53
2022/09/04 05:56:12;;;;;;;6.35;2.67;;;15.80;99.90;;;;;;5097254;28;20074;-53
2022/09/04 05:58:44;;;;;;;7.13;3.22;;;15.90;99.90;;;;;;5095141;28;20071;-53
2022/09/04 06:01:51;;;;;;;6.78;2.58;;;15.90;99.90;;;;;;5095263;28;20131;-52
2022/09/04 06:04:35;;;;;;;8.27;3.25;;;16.00;99.90;;;;;;5096847;28;20047;-51
2022/09/04 06:07:28;;;;;;;5.90;2.70;;;16.00;99.90;;;;;;5096434;28;20044;-53
2022/09/04 06:10:15;;;;;;;8.30;2.92;;;15.90;99.90;;;;;;5095663;28;20094;-53
2022/09/04 06:13:13;;;;;;;6.32;2.80;;;16.00;99.90;;;;;;5094810;28;20052;-53
2022/09/04 06:15:50;;;;;;;6.60;2.95;;;16.00;99.90;;;;;;5085184;28;20056;-52
2022/09/04 06:18:42;;;;;;;7.45;2.70;;;16.00;99.90;;;;;;5077748;28;20045;-52
2022/09/04 06:21:24;;;;;;;6.45;2.67;;;16.00;99.90;;;;;;5075784;28;20124;-52
2022/09/04 06:23:59;;;;;;;7.30;2.88;;;16.10;99.90;;;;;;5075666;28;20052;-53
2022/09/04 06:26:57;;;;;;;8.23;2.90;;;16.10;99.90;;;;;;5076012;28;20137;-53
2022/09/04 06:29:37;;;;;;;7.97;2.50;;;16.10;99.90;;;;;;5075807;28;20052;-53
2022/09/04 06:32:28;;;;;;;7.93;3.10;;;16.20;99.90;;;;;;5076310;28;20131;-52
2022/09/04 06:35:35;;;;;;;7.85;3.10;;;16.20;99.90;;;;;;5063854;28;20060;-53
2022/09/04 06:38:24;;;;;;;6.68;2.67;;;16.20;99.90;;;;;;5059370;28;20053;-53
2022/09/04 06:41:01;;;;;;;6.07;2.95;;;16.20;99.90;;;;;;5072901;28;20120;-50
2022/09/04 06:43:36;;;;;;;7.20;3.08;;;16.30;99.90;;;;;;5075171;28;20186;-50
2022/09/04 06:46:17;;;;;;;6.55;3.42;;;16.30;99.90;;;;;;5074148;28;20048;-53
2022/09/04 06:49:12;;;;;;;7.17;3.10;;;16.30;99.90;;;;;;5075317;28;20913;-52
2022/09/04 06:51:58;;;;;;;7.00;2.70;;;16.40;99.90;;;;;;5074789;28;20072;-52
2022/09/04 06:54:42;;;;;;;7.22;3.22;;;16.40;99.90;;;;;;5075318;28;20075;-52
2022/09/04 06:57:23;;;;;;;7.85;3.30;;;16.50;99.90;;;;;;5075856;28;20091;-51
2022/09/04 06:59:58;;;;;;;7.10;3.17;;;16.50;99.90;;;;;;5075116;28;20048;-51
2022/09/04 07:02:43;;;;;;;6.93;3.13;;;16.60;99.90;;;;;;5074927;28;20107;-52
2022/09/04 07:05:30;;;;;;;7.53;2.97;;;16.60;99.90;;;;;;5075611;28;20041;-52
2022/09/04 07:08:19;;;;;;;5.75;2.75;;;16.70;99.90;;;;;;5074924;28;20048;-52
2022/09/04 07:11:13;;;;;;;7.13;2.85;;;16.70;99.90;;;;;;5075463;28;20063;-53
2022/09/04 07:14:15;;;;;;;6.47;2.70;;;16.70;99.90;;;;;;5074760;28;20044;-53
2022/09/04 07:17:03;;;;;;;7.82;2.90;;;16.90;99.90;;;;;;5080576;28;20048;-53
2022/09/04 07:19:48;;;;;;;7.85;3.00;;;17.00;99.90;;;;;;5095639;28;20579;-50
2022/09/04 07:22:51;;;;;;;7.07;2.83;;;17.00;99.90;;;;;;5095704;28;20044;-51
2022/09/04 07:25:25;;;;;;;6.70;2.90;;;17.20;99.90;;;;;;5094595;28;20044;-52
2022/09/04 07:28:28;;;;;;;7.20;3.00;;;17.30;99.90;;;;;;5095767;28;20044;-52
2022/09/04 07:31:16;;;;;;;6.25;2.85;;;17.40;99.90;;;;;;5095551;28;20173;-52
2022/09/04 07:34:00;;;;;;;6.82;2.78;;;17.50;99.90;;;;;;5094980;28;20056;-51
2022/09/04 07:36:54;;;;;;;7.00;3.05;;;17.70;99.90;;;;;;5076622;28;20055;-52
2022/09/04 07:39:32;;;;;;;6.95;2.70;;;17.80;99.90;;;;;;5094842;28;20090;-52
2022/09/04 07:42:04;;;;;;;6.03;3.00;;;17.80;99.90;;;;;;5094799;28;20051;-52
2022/09/04 07:44:43;;;;;;;7.85;3.63;;;17.90;99.90;;;;;;5095503;28;20105;-53
2022/09/04 07:47:26;;;;;;;5.97;2.92;;;17.90;99.70;;;;;;5095061;28;20074;-52
2022/09/04 07:50:17;;;;;;;7.07;2.63;;;18.00;99.50;;;;;;5093350;28;20047;-53
2022/09/04 07:52:54;;;;;;;6.03;2.67;;;18.10;99.50;;;;;;5095422;28;20040;-52
2022/09/04 07:55:42;;;;;;;8.20;2.72;;;18.20;99.70;;;;;;5094374;28;20050;-54
2022/09/04 07:58:45;;;;;;;6.45;2.78;;;18.30;99.50;;;;;;5094351;28;20079;-53
2022/09/04 08:01:22;;;;;;;6.55;2.90;;;18.40;99.40;;;;;;5094807;28;20056;-54
2022/09/04 08:04:13;;;;;;;7.45;2.97;;;18.40;99.20;;;;;;5094456;28;20113;-53
2022/09/04 08:06:42;;;;;;;7.47;2.85;;;18.50;99.30;;;;;;5094560;28;20106;-52
2022/09/04 08:09:24;;;;;;;7.97;2.80;;;18.50;99.20;;;;;;5094879;28;20072;-52
2022/09/04 08:12:05;;;;;;;7.68;3.20;;;18.60;99.10;;;;;;5094038;28;20044;-52
2022/09/04 08:14:51;;;;;;;6.53;2.65;;;18.80;99.00;;;;;;5095234;28;20044;-52
2022/09/04 08:17:25;;;;;;;6.35;2.90;;;18.80;99.30;;;;;;5084299;28;20040;-53
2022/09/04 08:20:11;;;;;;;8.60;2.55;;;18.90;98.90;;;;;;5074124;28;20063;-52
2022/09/04 08:22:52;;;;;;;7.03;2.70;;;19.00;99.10;;;;;;5066988;28;20118;-50
2022/09/04 08:25:28;;;;;;;8.25;3.20;;;19.10;99.00;;;;;;5073151;28;20070;-53
2022/09/04 08:28:25;;;;;;;7.18;2.72;;;19.10;98.90;;;;;;5078694;28;20043;-49
2022/09/04 08:31:21;;;;;;;7.47;2.88;;;19.40;99.10;;;;;;5083731;28;20055;-53
2022/09/04 08:34:09;;;;;;;6.93;3.30;;;19.40;99.00;;;;;;5084782;28;20160;-53
2022/09/04 08:36:40;;;;;;;10.07;2.95;;;19.40;99.00;;;;;;5083631;28;20103;-53
2022/09/04 08:39:29;;;;;;;6.97;2.60;;;19.60;98.80;;;;;;5080698;28;20565;-53
2022/09/04 08:42:36;;;;;;;7.90;2.88;;;19.60;99.00;;;;;;5083069;28;20045;-51
2022/09/04 08:45:33;;;;;;;7.47;2.83;;;19.70;98.80;;;;;;5083128;28;20103;-53
2022/09/04 08:48:17;;;;;;;6.57;2.40;;;19.90;99.00;;;;;;5084551;28;20043;-53
2022/09/04 08:51:02;;;;;;;6.10;2.45;;;20.10;99.20;;;;;;5081836;28;20040;-51
2022/09/04 08:53:50;;;;;;;6.57;2.50;;;20.20;98.70;;;;;;5085084;28;20048;-51
2022/09/04 08:56:52;;;;;;;5.70;2.50;;;20.30;98.70;;;;;;5092448;28;20051;-53
2022/09/04 08:59:48;;;;;;;6.35;2.60;;;20.30;98.70;;;;;;5094110;28;20082;-54
2022/09/04 09:02:38;;;;;;;7.63;2.70;;;20.40;98.50;;;;;;5094217;28;20248;-54
2022/09/04 09:05:29;;;;;;;7.05;2.72;;;20.50;98.50;;;;;;5094208;28;20086;-53
2022/09/04 09:08:04;;;;;;;7.93;2.40;;;20.60;98.70;;;;;;5074821;28;20064;-53
2022/09/04 09:10:35;;;;;;;5.80;2.60;;;20.70;98.70;;;;;;5094374;28;20052;-52
2022/09/04 09:13:43;;;;;;;6.15;2.38;;;20.80;98.50;;;;;;5094149;28;20842;-53
2022/09/04 09:16:34;;;;;;;5.57;2.50;;;20.80;98.50;;;;;;5050309;28;21029;-53
2022/09/04 09:19:21;;;;;;;6.63;2.20;;;20.80;98.20;;;;;;5068602;28;20088;-54
2022/09/04 09:22:09;;;;;;;5.00;2.40;;;21.00;98.20;;;;;;5074330;28;20112;-54
2022/09/04 09:25:14;;;;;;;4.97;2.10;;;21.10;98.20;;;;;;5072890;28;20087;-55
2022/09/04 09:27:59;;;;;;;5.15;2.28;;;21.30;98.40;;;;;;5073763;28;20076;-53
2022/09/04 09:30:31;;;;;;;6.60;2.42;;;21.40;98.10;;;;;;5074027;28;20048;-54
2022/09/04 09:33:29;;;;;;;5.78;1.90;;;21.40;97.90;;;;;;5073072;28;20055;-54
2022/09/04 09:36:25;;;;;;;4.55;1.98;;;21.50;97.70;;;;;;5075983;28;20068;-53
2022/09/04 09:39:10;;;;;;;6.60;2.28;;;21.40;98.00;;;;;;5091126;28;20067;-53
2022/09/04 09:41:38;;;;;;;5.50;2.67;;;21.50;97.60;;;;;;5097187;28;20780;-54
2022/09/04 09:44:41;;;;;;;5.85;2.22;;;21.50;98.00;;;;;;5096564;28;20044;-54
2022/09/04 09:47:33;;;;;;;4.70;1.92;;;21.70;97.80;;;;;;5095934;28;20060;-53
2022/09/04 09:50:43;;;;;;;8.00;1.90;;;21.80;98.00;;;;;;5087972;28;20051;-53
2022/09/04 09:53:28;;;;;;;5.30;1.90;;;21.80;97.10;;;;;;5097691;28;20048;-53
2022/09/04 09:56:18;;;;;;;5.45;2.00;;;22.00;97.60;;;;;;5097529;28;20060;-53
2022/09/04 09:59:02;;;;;;;7.30;2.22;;;22.00;97.00;;;;;;5096294;28;20614;-54
2022/09/04 10:01:27;;;;;;;4.85;1.75;;;22.00;96.70;;;;;;5097162;28;20097;-54
2022/09/04 10:04:36;;;;;;;4.70;2.17;;;22.20;96.10;;;;;;5096651;28;20052;-53
2022/09/04 10:07:20;;;;;;;9.65;5.20;;;22.10;96.70;;;;;;5073458;28;20170;-53
2022/09/04 10:10:23;;;;;;;7.85;2.50;;;22.20;96.20;;;;;;5096521;28;20109;-52
2022/09/04 10:13:27;;;;;;;4.68;2.10;;;22.30;96.20;;;;;;5096634;28;20055;-52
2022/09/04 10:16:10;;;;;;;5.38;2.20;;;22.30;95.50;;;;;;5096460;28;20052;-54
2022/09/04 10:18:52;;;;;;;4.75;1.83;;;22.60;95.70;;;;;;5077068;28;20044;-52
2022/09/04 10:21:23;;;;;;;4.53;1.70;;;22.80;95.60;;;;;;5076562;28;20063;-53
2022/09/04 10:24:09;;;;;;;5.20;1.95;;;22.90;95.10;;;;;;5075939;28;20086;-54
2022/09/04 10:27:07;;;;;;;5.25;1.95;;;22.90;95.00;;;;;;5076569;28;20123;-53
2022/09/04 10:29:32;;;;;;;7.18;2.00;;;23.10;95.00;;;;;;5084080;28;20041;-54
2022/09/04 10:32:31;;;;;;;5.45;1.95;;;23.10;94.80;;;;;;5083601;28;20052;-53
2022/09/04 10:35:29;;;;;;;5.35;1.80;;;23.10;94.60;;;;;;5069192;28;20087;-54
2022/09/04 10:38:13;;;;;;;3.60;1.67;;;23.20;94.70;;;;;;5085624;28;20111;-53
2022/09/04 10:41:16;;;;;;;4.15;1.70;;;23.30;94.60;;;;;;5088562;28;20055;-53
2022/09/04 10:44:16;;;;;;;5.80;2.50;;;23.30;94.20;;;;;;5096089;28;20048;-51
2022/09/04 10:47:08;;;;;;;6.07;2.05;;;23.40;94.10;;;;;;5093961;28;20174;-51
2022/09/04 10:49:45;;;;;;;6.70;2.15;;;23.40;93.90;;;;;;5095722;28;20138;-49
2022/09/04 10:52:46;;;;;;;7.18;2.05;;;23.50;94.20;;;;;;5096255;28;20052;-51
2022/09/04 10:55:31;;;;;;;5.75;1.60;;;23.50;94.00;;;;;;5095563;28;20044;-52
2022/09/04 10:58:03;;;;;;;9.80;2.28;;;23.70;94.00;;;;;;5095844;28;20067;-51
2022/09/04 11:00:51;;;;;;;6.57;1.80;;;23.60;94.00;;;;;;5096029;28;20058;-52
2022/09/04 11:03:44;;;;;;;5.72;1.85;;;23.70;93.50;;;;;;5095393;28;20059;-52
2022/09/04 11:06:12;;;;;;;4.55;1.65;;;23.80;94.00;;;;;;5096145;28;20054;-51
2022/09/04 11:09:09;;;;;;;8.30;1.70;;;23.80;94.00;;;;;;5095809;28;20036;-50
2022/09/04 11:11:46;;;;;;;4.47;1.52;;;24.00;93.60;;;;;;5094980;28;20040;-53
2022/09/04 11:14:36;;;;;;;4.85;2.05;;;24.00;93.60;;;;;;5096169;28;20078;-50
2022/09/04 11:17:27;;;;;;;6.88;1.80;;;24.10;93.30;;;;;;5087271;28;20052;-51
2022/09/04 11:20:05;;;;;;;6.68;1.67;;;24.20;93.30;;;;;;5074949;28;20096;-52
2022/09/04 11:22:59;;;;;;;5.63;1.70;;;24.10;93.00;;;;;;5075786;28;20059;-51
2022/09/04 11:25:50;;;;;;;5.43;1.73;;;24.30;93.30;;;;;;5074711;28;20868;-53
2022/09/04 11:28:55;;;;;;;7.32;2.13;;;24.30;92.80;;;;;;5075123;28;20060;-52
2022/09/04 11:31:47;;;;;;;4.60;1.98;;;24.30;93.00;;;;;;5075507;28;20075;-51
2022/09/04 11:34:31;;;;;;;4.35;1.73;;;24.30;92.90;;;;;;5075240;28;20049;-51
2022/09/04 11:37:18;;;;;;;6.30;1.92;;;24.30;93.00;;;;;;5074042;28;20060;-52
2022/09/04 11:40:11;;;;;;;4.97;1.70;;;24.20;92.80;;;;;;5073501;28;20056;-52
2022/09/04 11:42:57;;;;;;;5.78;1.80;;;24.20;92.70;;;;;;5074405;28;20048;-52
2022/09/04 11:45:50;;;;;;;5.88;1.90;;;24.20;92.80;;;;;;5074026;28;20072;-52
2022/09/04 11:48:41;;;;;;;5.30;1.70;;;24.30;93.00;;;;;;5074105;28;20092;-50
2022/09/04 11:51:41;;;;;;;6.28;1.70;;;24.30;92.40;;;;;;5074458;28;20060;-52
2022/09/04 11:54:52;;;;;;;7.05;1.50;;;24.40;92.80;;;;;;5074598;28;20570;-53
2022/09/04 11:57:47;;;;;;;6.32;1.85;;;24.50;93.00;;;;;;5074793;28;20123;-55
2022/09/04 12:00:15;;;;;;;5.05;1.85;;;24.70;93.30;;;;;;5073578;28;20483;-52
2022/09/04 12:03:14;;;;;;;5.03;2.13;;;24.80;92.80;;;;;;5074189;28;20032;-50
2022/09/04 12:06:04;;;;;;;5.28;2.33;;;24.80;92.40;;;;;;5074302;28;20040;-52
2022/09/04 12:08:46;;;;;;;3.80;1.50;;;24.80;92.20;;;;;;5074034;28;20048;-50
2022/09/04 12:11:37;;;;;;;6.88;1.80;;;24.80;92.70;;;;;;5074140;28;20890;-51
2022/09/04 12:14:24;;;;;;;5.78;1.80;;;24.90;92.60;;;;;;5074850;28;20072;-50
2022/09/04 12:17:14;;;;;;;3.70;1.70;;;24.90;92.70;;;;;;5079980;28;20078;-49
2022/09/04 12:20:09;;;;;;;4.45;1.70;;;24.80;92.70;;;;;;5094325;28;20081;-52
2022/09/04 12:23:09;;;;;;;5.28;2.05;;;24.90;92.80;;;;;;5094963;28;20567;-52
2022/09/04 12:26:00;;;;;;;5.63;1.88;;;24.90;92.60;;;;;;5091968;28;20080;-51
2022/09/04 12:28:47;;;;;;;3.93;1.60;;;24.90;92.60;;;;;;5081950;28;20044;-51
2022/09/04 12:31:55;;;;;;;5.82;2.72;;;24.90;93.10;;;;;;5074541;28;20611;-48
2022/09/04 12:34:35;;;;;;;4.95;1.90;;;25.00;92.30;;;;;;5072141;28;20108;-50
2022/09/04 12:37:45;;;;;;;4.55;1.60;;;25.00;92.60;;;;;;5073439;28;20052;-49
2022/09/04 12:40:50;;;;;;;5.22;1.83;;;25.10;92.60;;;;;;5074584;28;20451;-51
2022/09/04 12:43:36;;;;;;;4.55;1.80;;;25.20;92.90;;;;;;5074372;28;20057;-52
2022/09/04 12:46:11;;;;;;;6.53;1.73;;;25.20;92.70;;;;;;5073408;28;20044;-51
2022/09/04 12:49:03;;;;;;;5.00;1.80;;;25.20;92.70;;;;;;5074394;28;20079;-52
2022/09/04 12:51:48;;;;;;;4.30;1.80;;;25.40;92.50;;;;;;5074212;28;20068;-50
2022/09/04 12:54:24;;;;;;;5.82;1.98;;;25.50;92.90;;;;;;5072472;28;20056;-52
2022/09/04 12:57:35;;;;;;;5.03;2.15;;;25.40;92.40;;;;;;5073893;28;20049;-51
2022/09/04 13:00:04;;;;;;;6.43;1.80;;;25.60;92.40;;;;;;5073862;28;20064;-51
2022/09/04 13:02:51;;;;;;;6.75;2.00;;;25.50;92.30;;;;;;5073422;28;20044;-52
2022/09/04 13:05:41;;;;;;;4.07;1.60;;;25.40;92.10;;;;;;5073796;28;20052;-49
2022/09/04 13:08:21;;;;;;;5.00;1.75;;;25.40;92.20;;;;;;5073465;28;20071;-49
2022/09/04 13:11:20;;;;;;;3.92;1.52;;;25.30;92.40;;;;;;5075582;28;20044;-51
2022/09/04 13:14:06;;;;;;;5.05;1.92;;;25.30;91.90;;;;;;5073273;28;20056;-51
2022/09/04 13:16:57;;;;;;;5.72;1.92;;;25.30;91.90;;;;;;5079691;28;20048;-50
2022/09/04 13:19:53;;;;;;;;;;;25.30;92.20;;;;;;5089562;28;20093;-52
2022/09/04 13:22:35;;;;;;;4.05;1.55;;;25.40;92.50;;;;;;5068317;28;19978;-52
2022/09/04 13:25:07;;;;;;;4.20;1.88;;;25.40;91.80;;;;;;5076832;28;20484;-51
2022/09/04 13:27:50;;;;;;;3.63;1.48;;;25.40;92.30;;;;;;5077436;28;20041;-51
2022/09/04 13:30:23;;;;;;;4.05;1.67;;;25.30;92.60;;;;;;5077278;28;20606;-52
2022/09/04 13:33:14;;;;;;;4.80;1.70;;;25.40;92.40;;;;;;5092758;28;20040;-52
2022/09/04 13:36:09;;;;;;;5.68;1.63;;;25.30;92.20;;;;;;5097764;28;20076;-51
2022/09/04 13:38:47;;;;;;;6.78;1.85;;;25.20;92.60;;;;;;5097276;28;20044;-52
2022/09/04 13:41:25;;;;;;;4.70;1.50;;;25.10;92.50;;;;;;5096824;28;20044;-50
2022/09/04 13:44:11;;;;;;;5.15;1.83;;;25.10;92.20;;;;;;5097289;28;20040;-52
2022/09/04 13:46:48;;;;;;;4.97;1.98;;;25.10;92.00;;;;;;5096307;28;20087;-51
2022/09/04 13:49:19;;;;;;;6.28;1.80;;;25.10;92.10;;;;;;5096986;28;20055;-52
2022/09/04 13:52:07;;;;;;;4.25;1.65;;;25.10;92.20;;;;;;5097189;28;20048;-50
2022/09/04 13:54:35;;;;;;;3.85;1.55;;;25.10;92.30;;;;;;5096132;28;20089;-52
2022/09/04 13:57:15;;;;;;;4.63;1.60;;;25.10;92.50;;;;;;5095851;28;20078;-49
2022/09/04 13:59:43;;;;;;;4.32;1.58;;;25.10;92.60;;;;;;5095425;28;20055;-49
2022/09/04 14:02:13;;;;;;;4.53;1.90;;;25.10;92.80;;;;;;5096857;28;20104;-49
2022/09/04 14:04:49;;;;;;;5.25;1.83;;;25.00;92.60;;;;;;5096851;28;20044;-50
2022/09/04 14:07:28;;;;;;;4.97;1.60;;;25.10;92.60;;;;;;5096095;28;20048;-52
2022/09/04 14:09:57;;;;;;;4.60;1.73;;;25.10;92.00;;;;;;5096729;28;20408;-52
2022/09/04 14:12:28;;;;;;;4.68;1.63;;;25.10;92.40;;;;;;5095003;28;20387;-52
2022/09/04 14:15:06;;;;;;;5.03;1.80;;;25.10;92.30;;;;;;5096528;28;20043;-52
2022/09/04 14:17:58;;;;;;;3.67;1.52;;;25.10;92.20;;;;;;5083974;28;20048;-52
2022/09/04 14:20:39;;;;;;;4.00;1.80;;;25.20;92.50;;;;;;5070417;28;20139;-50
2022/09/04 14:23:39;;;;;;;4.53;1.90;;;25.20;92.40;;;;;;5075611;28;20048;-50
2022/09/04 14:26:43;;;;;;;4.85;1.63;;;25.20;92.60;;;;;;5074692;28;20060;-53